Time;durP1;ratioP1;P1;durP2;ratioP2;P2;SDS_P1;SDS_P2;PMS_P1;PMS_P2;Temp;Humidity;BMP_temperature;BMP_pressure;BME280_temperature;BME280_humidity;BME280_pressure;Samples;Min_cycle;Max_cycle;Signal;HPM_P1;HPM_P2
2022/09/06 00:00:34;;;;;;;7.00;3.33;;;;;;;6.23;79.32;101915.75;10551100;28;19952;-73
2022/09/06 00:05:37;;;;;;;6.65;2.88;;;;;;;6.26;78.25;101911.78;10566381;28;20051;-74
2022/09/06 00:10:41;;;;;;;6.72;2.75;;;;;;;6.33;79.05;101899.75;10565789;28;20462;-74
2022/09/06 00:15:43;;;;;;;5.55;2.83;;;;;;;6.42;78.39;101894.00;10566842;28;20048;-74
2022/09/06 00:20:45;;;;;;;6.22;3.17;;;;;;;6.42;79.43;101891.28;10568447;28;20575;-73
2022/09/06 00:25:47;;;;;;;6.60;3.63;;;;;;;6.42;79.21;101883.09;10566786;28;20071;-73
2022/09/06 00:30:49;;;;;;;5.25;3.10;;;;;;;6.49;79.39;101876.53;10563811;28;20047;-73
2022/09/06 00:35:57;;;;;;;5.40;2.92;;;;;;;6.59;79.16;101865.94;10566860;28;20054;-73
2022/09/06 00:40:59;;;;;;;6.05;3.10;;;;;;;6.60;79.05;101858.63;10567070;28;20043;-73
2022/09/06 00:46:02;;;;;;;5.15;2.60;;;;;;;6.68;79.44;101855.59;10563216;28;20047;-73
2022/09/06 00:51:07;;;;;;;6.78;3.05;;;;;;;6.75;79.68;101859.06;10550069;28;20047;-73
2022/09/06 00:56:09;;;;;;;5.38;2.58;;;;;;;6.83;79.90;101844.31;10566180;28;20685;-73
2022/09/06 01:01:11;;;;;;;4.20;2.22;;;;;;;6.76;79.55;101832.63;10574995;28;20056;-73
2022/09/06 01:06:17;;;;;;;4.60;2.33;;;;;;;6.80;79.24;101840.16;10575381;28;20047;-73
2022/09/06 01:11:40;;;;;;;4.78;2.58;;;;;;;6.82;80.02;101846.22;10574835;28;20413;-73
2022/09/06 01:17:30;;;;;;;3.75;2.30;;;;;;;6.96;79.66;101833.25;10573794;28;20044;-73
2022/09/06 01:22:48;;;;;;;4.38;1.90;;;;;;;7.09;79.02;101826.78;10572474;28;20048;-73
2022/09/06 01:28:01;;;;;;;3.88;1.85;;;;;;;7.12;79.14;101827.19;10564926;28;20040;-73
2022/09/06 01:33:23;;;;;;;4.05;2.25;;;;;;;7.04;79.95;101821.19;10569601;28;20051;-73
2022/09/06 01:38:25;;;;;;;3.10;1.67;;;;;;;7.04;79.90;101821.19;10571047;28;20036;-73
2022/09/06 01:43:31;;;;;;;3.08;1.63;;;;;;;7.03;79.91;101814.06;10572925;28;20066;-73
2022/09/06 01:48:58;;;;;;;3.92;2.10;;;;;;;6.99;79.53;101808.25;10571809;28;20564;-74
2022/09/06 01:54:03;;;;;;;3.60;1.90;;;;;;;7.04;80.42;101802.91;10573591;28;20502;-73
2022/09/06 01:59:29;;;;;;;3.50;1.85;;;;;;;7.15;80.04;101798.59;10573360;28;20044;-73
2022/09/06 02:04:46;;;;;;;3.13;1.85;;;;;;;7.12;80.84;101791.69;10571666;28;20517;-73
2022/09/06 02:10:12;;;;;;;4.45;1.98;;;;;;;7.06;80.52;101789.88;10569807;28;20418;-73
2022/09/06 02:15:27;;;;;;;3.75;2.20;;;;;;;7.11;79.62;101786.44;10561600;28;20525;-73
2022/09/06 02:20:32;;;;;;;3.03;1.98;;;;;;;7.07;80.12;101786.06;10571152;28;20061;-73
2022/09/06 02:25:37;;;;;;;4.43;2.13;;;;;;;7.05;80.86;101793.66;10555239;28;20502;-73
2022/09/06 02:30:42;;;;;;;4.03;2.00;;;;;;;7.02;80.26;101791.41;10586262;28;20036;-73
2022/09/06 02:35:47;;;;;;;3.60;1.90;;;;;;;6.95;80.90;101788.75;10586049;27;20462;-73
2022/09/06 02:41:21;;;;;;;4.00;1.85;;;;;;;6.92;80.18;101786.47;10570125;28;20043;-73
2022/09/06 02:46:24;;;;;;;3.63;1.83;;;;;;;6.90;80.68;101787.75;10557858;28;20039;-73
2022/09/06 02:51:26;;;;;;;2.80;1.45;;;;;;;6.88;80.84;101771.63;10571355;28;20051;-73
2022/09/06 02:56:28;;;;;;;3.47;1.67;;;;;;;6.87;80.90;101771.84;10571571;28;20047;-73
2022/09/06 03:01:31;;;;;;;3.00;1.40;;;;;;;6.82;80.75;101769.81;10567335;28;20530;-73
2022/09/06 03:06:34;;;;;;;2.03;1.40;;;;;;;6.80;80.65;101768.38;10570766;28;20047;-73
2022/09/06 03:11:36;;;;;;;3.42;1.80;;;;;;;6.80;80.97;101774.69;10571290;28;20044;-73
2022/09/06 03:16:39;;;;;;;3.88;1.50;;;;;;;6.83;81.70;101760.56;10568604;28;20043;-74
2022/09/06 03:21:41;;;;;;;3.70;1.85;;;;;;;6.89;81.08;101759.66;10570108;28;20044;-74
2022/09/06 03:26:43;;;;;;;1.58;1.38;;;;;;;6.92;81.63;101750.16;10569329;28;20653;-73
2022/09/06 03:31:45;;;;;;;2.65;1.73;;;;;;;6.93;81.31;101746.38;10563969;28;20047;-73
2022/09/06 03:36:47;;;;;;;4.22;1.40;;;;;;;6.88;82.21;101733.44;10567280;28;20048;-73
2022/09/06 03:41:49;;;;;;;2.90;1.52;;;;;;;6.86;82.02;101734.72;10568987;28;20048;-73
2022/09/06 03:46:52;;;;;;;1.92;1.23;;;;;;;6.87;82.40;101736.38;10569445;28;20426;-73
2022/09/06 03:51:54;;;;;;;2.95;1.95;;;;;;;6.87;82.57;101742.69;10566296;28;20525;-73
2022/09/06 03:56:56;;;;;;;4.78;2.05;;;;;;;6.85;83.06;101733.06;10572045;28;20028;-73
2022/09/06 04:01:58;;;;;;;2.38;1.27;;;;;;;6.80;83.02;101731.03;10567943;28;20534;-73
2022/09/06 04:07:01;;;;;;;5.30;1.40;;;;;;;6.79;83.56;101734.81;10573565;28;20512;-73
2022/09/06 04:12:03;;;;;;;3.67;1.70;;;;;;;6.79;83.80;101731.25;10565675;28;20505;-73
2022/09/06 04:17:06;;;;;;;4.72;1.77;;;;;;;6.76;83.89;101718.06;10572597;28;20047;-73
2022/09/06 04:22:08;;;;;;;3.67;1.70;;;;;;;6.79;83.40;101723.91;10568420;28;20055;-73
2022/09/06 04:27:10;;;;;;;3.67;1.88;;;;;;;6.83;83.29;101718.81;10566677;28;20051;-73
2022/09/06 04:32:12;;;;;;;2.65;1.90;;;;;;;6.88;83.69;101711.59;10567128;28;20044;-72
2022/09/06 04:37:18;;;;;;;2.58;1.67;;;;;;;6.91;83.16;101705.69;10575169;28;20047;-72
2022/09/06 04:42:21;;;;;;;4.43;1.70;;;;;;;7.03;83.47;101703.00;10575541;28;20047;-73
2022/09/06 04:47:23;;;;;;;3.63;2.00;;;;;;;7.09;82.96;101698.50;10576794;28;20051;-72
2022/09/06 04:52:26;;;;;;;3.28;1.80;;;;;;;7.14;83.21;101693.22;10577495;28;20044;-72
2022/09/06 04:57:28;;;;;;;2.70;1.60;;;;;;;7.17;83.14;101692.75;10577359;28;20048;-72
2022/09/06 05:02:30;;;;;;;3.08;1.60;;;;;;;7.18;82.95;101680.75;10576764;28;20040;-73
2022/09/06 05:07:32;;;;;;;5.18;1.48;;;;;;;7.21;82.64;101674.81;10575597;28;20044;-73
2022/09/06 05:12:35;;;;;;;3.58;1.70;;;;;;;7.23;82.55;101673.50;10576776;28;20040;-72
2022/09/06 05:17:37;;;;;;;4.15;2.17;;;;;;;7.32;82.92;101684.94;10575717;28;20040;-72
2022/09/06 05:22:40;;;;;;;2.60;1.90;;;;;;;7.43;82.39;101675.94;10569029;28;20394;-72
2022/09/06 05:27:42;;;;;;;2.80;1.70;;;;;;;7.62;82.83;101681.28;10572261;28;20043;-72
2022/09/06 05:32:44;;;;;;;2.78;1.65;;;;;;;7.67;82.83;101685.00;10568625;28;20494;-72
2022/09/06 05:37:46;;;;;;;2.67;1.55;;;;;;;7.75;82.89;101683.81;10589690;28;20040;-72
2022/09/06 05:42:49;;;;;;;4.97;1.75;;;;;;;7.82;82.36;101676.34;10567615;28;20041;-73
2022/09/06 05:47:51;;;;;;;2.22;1.50;;;;;;;7.91;82.75;101672.16;10564407;28;20051;-72
2022/09/06 05:52:53;;;;;;;4.22;2.15;;;;;;;8.03;81.92;101666.69;10573726;28;20052;-72
2022/09/06 05:57:55;;;;;;;4.32;1.83;;;;;;;8.16;81.45;101659.09;10574049;28;20528;-72
2022/09/06 06:02:57;;;;;;;1.60;1.15;;;;;;;8.28;80.99;101660.94;10587339;28;20035;-72
2022/09/06 06:08:01;;;;;;;2.00;1.20;;;;;;;8.32;81.01;101657.47;10554864;28;20054;-72
2022/09/06 06:13:03;;;;;;;3.40;1.48;;;;;;;8.45;80.25;101662.72;10589305;28;20035;-72
2022/09/06 06:18:06;;;;;;;2.58;1.48;;;;;;;8.57;80.23;101657.22;10576484;28;20498;-73
2022/09/06 06:23:08;;;;;;;2.10;1.40;;;;;;;8.63;79.75;101647.19;10574767;28;20051;-73
2022/09/06 06:28:10;;;;;;;3.25;1.55;;;;;;;8.79;79.58;101648.34;10578572;28;20058;-73
2022/09/06 06:33:12;;;;;;;3.45;1.50;;;;;;;8.98;79.13;101636.94;10572154;28;20043;-72
2022/09/06 06:38:15;;;;;;;4.40;1.95;;;;;;;9.17;79.00;101640.28;10572842;28;20052;-73
2022/09/06 06:43:17;;;;;;;5.13;2.00;;;;;;;9.42;78.21;101634.41;10573013;28;20043;-72
2022/09/06 06:48:20;;;;;;;3.10;1.75;;;;;;;9.58;77.83;101639.06;10570826;28;20044;-73
2022/09/06 06:53:22;;;;;;;3.65;1.52;;;;;;;9.81;77.93;101626.22;10571541;28;20044;-73
2022/09/06 06:58:25;;;;;;;2.58;1.67;;;;;;;10.20;77.32;101605.94;10570779;28;20043;-73
2022/09/06 07:03:27;;;;;;;1.60;1.25;;;;;;;10.70;76.21;101618.63;10572608;28;20506;-73
2022/09/06 07:08:29;;;;;;;1.63;1.20;;;;;;;11.10;74.40;101617.34;10571806;28;20062;-73
2022/09/06 07:13:33;;;;;;;2.22;1.40;;;;;;;11.48;72.84;101613.59;10570431;28;20043;-73
2022/09/06 07:18:40;;;;;;;1.65;1.30;;;;;;;11.92;71.51;101610.59;10571766;28;20048;-73
2022/09/06 07:23:43;;;;;;;1.90;1.20;;;;;;;12.29;70.19;101607.75;10570728;28;20044;-73
2022/09/06 07:28:46;;;;;;;1.65;1.10;;;;;;;12.77;67.47;101606.53;10571104;28;20043;-73
2022/09/06 07:33:49;;;;;;;3.30;1.13;;;;;;;12.74;64.77;101598.81;10558444;28;20044;-73
2022/09/06 07:38:52;;;;;;;3.58;1.10;;;;;;;12.72;63.83;101597.44;10528747;28;20071;-73
2022/09/06 07:43:54;;;;;;;2.60;1.10;;;;;;;12.86;62.41;101601.31;10569964;28;20532;-73
2022/09/06 07:48:57;;;;;;;2.08;1.10;;;;;;;13.25;60.25;101583.19;10570742;28;20127;-73
2022/09/06 07:53:59;;;;;;;0.85;0.80;;;;;;;13.53;59.61;101579.00;10571188;28;20051;-73
2022/09/06 07:59:01;;;;;;;1.67;0.90;;;;;;;13.66;58.24;101577.63;10570389;28;20055;-73
2022/09/06 08:04:07;;;;;;;0.88;0.88;;;;;;;13.86;57.03;101579.50;10569826;28;20032;-73
2022/09/06 08:09:09;;;;;;;0.98;0.70;;;;;;;14.47;54.58;101566.31;10564395;28;20683;-74
2022/09/06 08:14:39;;;;;;;1.80;1.15;;;;;;;14.88;52.34;101554.16;10568848;28;20055;-73
2022/09/06 08:19:41;;;;;;;3.33;0.80;;;;;;;15.07;51.12;101549.59;10570109;28;20059;-73
2022/09/06 08:24:43;;;;;;;0.73;0.73;;;;;;;15.14;51.06;101535.47;10569221;28;20040;-73
2022/09/06 08:29:45;;;;;;;1.17;0.70;;;;;;;14.88;49.89;101548.63;10566227;28;20394;-73
2022/09/06 08:34:48;;;;;;;0.90;0.70;;;;;;;14.50;49.93;101531.78;10539629;28;20040;-74
2022/09/06 08:39:50;;;;;;;1.15;0.68;;;;;;;14.19;50.84;101536.59;10563736;28;20040;-74
2022/09/06 08:44:54;;;;;;;2.75;0.80;;;;;;;13.87;50.41;101537.00;10569230;28;20059;-74
2022/09/06 08:50:01;;;;;;;0.50;0.50;;;;;;;13.35;51.36;101535.47;10584474;28;20079;-75
2022/09/06 08:55:27;;;;;;;1.25;0.73;;;;;;;12.86;52.71;101529.72;10565100;28;20421;-74
2022/09/06 09:00:31;;;;;;;1.75;0.70;;;;;;;12.56;53.65;101536.81;10565608;28;20040;-74
2022/09/06 09:05:35;;;;;;;1.17;0.70;;;;;;;12.37;54.71;101527.41;10567299;28;20055;-76
2022/09/06 09:10:48;;;;;;;1.25;0.90;;;;;;;12.11;55.89;101515.50;10567035;28;20096;-75
2022/09/06 09:16:20;;;;;;;1.65;1.23;;;;;;;12.00;56.51;101509.16;10567417;28;20113;-75
2022/09/06 09:21:24;;;;;;;1.67;0.93;;;;;;;12.05;56.60;101498.16;10557845;28;20441;-74
2022/09/06 09:26:48;;;;;;;1.25;0.95;;;;;;;12.08;56.86;101489.34;10566562;28;20040;-74
2022/09/06 09:31:53;;;;;;;1.20;0.80;;;;;;;12.15;56.54;101480.88;10534004;28;20049;-75
2022/09/06 09:37:25;;;;;;;1.48;0.98;;;;;;;12.21;56.38;101463.25;10536021;28;20041;-75
2022/09/06 09:42:34;;;;;;;2.75;0.88;;;;;;;12.29;56.60;101462.72;10545622;28;20051;-75
2022/09/06 09:47:36;;;;;;;0.95;0.90;;;;;;;12.31;57.23;101463.25;10575559;28;20044;-76
2022/09/06 09:52:43;;;;;;;0.68;0.68;;;;;;;12.30;56.72;101453.34;10574788;28;20568;-75
2022/09/06 09:57:46;;;;;;;2.00;0.77;;;;;;;12.22;56.82;101448.41;10573724;28;20040;-75
2022/09/06 10:02:48;;;;;;;1.98;0.73;;;;;;;12.20;57.16;101439.59;10574261;28;20040;-75
2022/09/06 10:07:53;;;;;;;1.42;0.80;;;;;;;12.23;57.95;101429.97;10574006;28;20043;-75
2022/09/06 10:13:31;;;;;;;2.15;1.20;;;;;;;12.28;58.40;101425.28;10573731;28;20047;-74
2022/09/06 10:18:38;;;;;;;0.80;0.75;;;;;;;12.34;58.35;101428.88;10573504;28;20043;-74
2022/09/06 10:23:59;;;;;;;2.20;0.73;;;;;;;12.36;58.17;101413.75;10572393;28;20040;-74
2022/09/06 10:29:04;;;;;;;1.92;0.77;;;;;;;12.43;58.48;101409.88;10571994;28;20410;-74
2022/09/06 10:34:37;;;;;;;5.10;0.80;;;;;;;12.55;58.64;101399.44;10587985;28;20398;-74
2022/09/06 10:39:55;;;;;;;1.10;0.70;;;;;;;12.56;59.52;101388.16;10555922;28;20533;-74
2022/09/06 10:45:27;;;;;;;2.00;0.90;;;;;;;12.68;60.18;101382.38;10570609;28;20051;-74
2022/09/06 10:50:49;;;;;;;1.60;0.80;;;;;;;12.74;60.60;101361.97;10572558;28;20429;-74
2022/09/06 10:56:19;;;;;;;2.92;0.80;;;;;;;12.74;60.78;101381.25;10571235;28;20525;-73
2022/09/06 11:01:40;;;;;;;1.83;0.60;;;;;;;12.72;61.16;101368.88;10571182;28;20040;-74
2022/09/06 11:06:46;;;;;;;2.38;0.80;;;;;;;12.87;61.35;101361.41;10572031;28;20494;-74
2022/09/06 11:11:50;;;;;;;1.60;0.68;;;;;;;12.86;62.08;101350.66;10571301;28;20046;-73
2022/09/06 11:17:03;;;;;;;1.10;0.80;;;;;;;12.83;62.58;101353.94;10511561;28;20406;-73
2022/09/06 11:22:14;;;;;;;2.58;0.95;;;;;;;12.92;63.22;101338.53;10546104;28;20532;-74
2022/09/06 11:27:28;;;;;;;1.73;0.95;;;;;;;13.00;64.20;101332.41;10570405;28;20502;-74
2022/09/06 11:32:38;;;;;;;1.17;0.95;;;;;;;12.99;63.89;101331.59;10571219;28;20422;-73
2022/09/06 11:37:42;;;;;;;2.58;1.02;;;;;;;13.04;64.99;101321.69;10538633;28;20044;-74
2022/09/06 11:42:44;;;;;;;1.02;0.73;;;;;;;13.07;64.50;101315.59;10539967;28;20040;-74
2022/09/06 11:47:50;;;;;;;0.80;0.80;;;;;;;13.09;65.21;101314.22;10569550;28;20036;-74
2022/09/06 11:53:03;;;;;;;3.20;0.93;;;;;;;13.09;65.95;101303.19;10569473;28;20425;-74
2022/09/06 11:58:20;;;;;;;1.88;0.80;;;;;;;13.11;65.76;101311.19;10568737;28;20036;-74
2022/09/06 12:03:47;;;;;;;2.50;1.07;;;;;;;13.07;65.98;101304.59;10568596;28;20295;-74
2022/09/06 12:08:53;;;;;;;0.60;0.60;;;;;;;13.01;66.33;101303.75;10568973;28;20478;-74
2022/09/06 12:13:59;;;;;;;1.10;0.77;;;;;;;12.85;66.60;101286.50;10569544;28;20069;-74
2022/09/06 12:19:02;;;;;;;2.03;0.70;;;;;;;12.76;67.03;101277.13;10567687;28;20451;-74
2022/09/06 12:24:32;;;;;;;0.63;0.63;;;;;;;12.71;67.41;101276.34;10568869;28;20043;-74
2022/09/06 12:29:35;;;;;;;1.00;0.90;;;;;;;12.66;68.16;101277.97;10569202;28;20457;-73
2022/09/06 12:34:37;;;;;;;1.95;0.70;;;;;;;12.64;67.56;101268.34;10567549;28;20051;-73
2022/09/06 12:39:55;;;;;;;0.82;0.70;;;;;;;12.68;67.64;101255.69;10567715;28;20052;-74
2022/09/06 12:44:57;;;;;;;1.00;0.70;;;;;;;12.78;67.86;101261.16;10569489;28;20415;-73
2022/09/06 12:50:16;;;;;;;2.15;0.75;;;;;;;12.85;68.42;101253.44;10566415;28;20048;-74
2022/09/06 12:55:31;;;;;;;1.85;1.08;;;;;;;12.87;68.48;101233.88;10571747;28;20046;-74
2022/09/06 13:00:43;;;;;;;1.92;0.85;;;;;;;12.84;68.27;101228.91;10572806;28;20048;-74
2022/09/06 13:05:46;;;;;;;2.13;0.80;;;;;;;12.85;68.90;101217.63;10558749;28;20048;-75
2022/09/06 13:10:48;;;;;;;0.95;0.80;;;;;;;12.88;69.13;101225.31;10571717;28;20052;-73
2022/09/06 13:15:50;;;;;;;5.13;1.05;;;;;;;12.81;69.40;101219.28;10572079;28;20043;-74
2022/09/06 13:20:59;;;;;;;4.10;0.95;;;;;;;12.80;69.21;101214.88;10570806;28;20032;-72
2022/09/06 13:26:02;;;;;;;4.07;0.95;;;;;;;12.78;69.31;101214.34;10562950;28;20048;-74
2022/09/06 13:31:06;;;;;;;2.00;1.58;;;;;;;12.78;69.40;101208.84;10568188;28;20060;-73
2022/09/06 13:36:22;;;;;;;2.92;0.88;;;;;;;12.76;69.01;101200.03;10566973;28;20040;-73
2022/09/06 13:41:24;;;;;;;0.73;0.70;;;;;;;12.79;69.24;101188.44;10573770;27;20471;-72
2022/09/06 13:46:26;;;;;;;1.77;0.77;;;;;;;12.75;69.19;101187.38;10569642;28;20048;-73
2022/09/06 13:51:28;;;;;;;0.85;0.80;;;;;;;12.72;69.37;101187.13;10573210;28;20040;-73
2022/09/06 13:56:31;;;;;;;2.38;0.93;;;;;;;12.71;69.65;101178.03;10568919;28;20036;-72
2022/09/06 14:01:33;;;;;;;1.85;1.02;;;;;;;12.65;69.75;101182.72;10571492;28;20040;-73
2022/09/06 14:06:35;;;;;;;0.93;0.77;;;;;;;12.64;70.22;101172.00;10576471;28;20044;-74
2022/09/06 14:11:38;;;;;;;1.58;1.00;;;;;;;12.57;70.46;101165.97;10571303;28;20048;-71
2022/09/06 14:16:40;;;;;;;0.70;0.70;;;;;;;12.55;70.32;101159.94;10568809;28;20044;-73
2022/09/06 14:21:43;;;;;;;2.20;0.90;;;;;;;12.54;70.67;101158.28;10566547;28;20040;-72
2022/09/06 14:26:46;;;;;;;0.98;0.70;;;;;;;12.49;70.65;101161.03;10569145;28;20044;-73
2022/09/06 14:31:48;;;;;;;1.73;0.90;;;;;;;12.43;71.21;101156.66;10572002;28;20051;-73
2022/09/06 14:36:51;;;;;;;2.58;1.20;;;;;;;12.36;71.84;101145.97;10571593;28;20058;-72
2022/09/06 14:41:53;;;;;;;4.28;1.33;;;;;;;12.29;72.02;101139.91;10567773;28;20055;-71
2022/09/06 14:46:55;;;;;;;5.70;1.58;;;;;;;12.23;72.31;101130.88;10568027;28;20134;-72
2022/09/06 14:51:58;;;;;;;5.53;1.42;;;;;;;12.21;71.96;101126.75;10567088;28;20544;-72
2022/09/06 14:57:00;;;;;;;3.15;1.38;;;;;;;12.18;71.89;101125.38;10569217;28;20510;-71
2022/09/06 15:02:03;;;;;;;1.30;1.00;;;;;;;12.15;71.89;101116.84;10567768;28;20375;-71
2022/09/06 15:07:05;;;;;;;2.03;1.33;;;;;;;12.15;72.78;101114.09;10569693;28;20119;-71
2022/09/06 15:12:07;;;;;;;2.50;1.10;;;;;;;12.13;72.49;101108.06;10570583;28;20055;-73
2022/09/06 15:17:10;;;;;;;5.57;1.23;;;;;;;12.13;73.12;101108.06;10570333;28;20048;-73
2022/09/06 15:22:12;;;;;;;3.75;1.25;;;;;;;12.10;73.02;101103.13;10569971;28;21685;-72
2022/09/06 15:27:15;;;;;;;0.80;0.80;;;;;;;12.06;72.75;101094.59;10571476;28;20048;-70
2022/09/06 15:32:17;;;;;;;2.83;0.90;;;;;;;12.03;73.29;101075.91;10568792;28;20044;-71
2022/09/06 15:37:19;;;;;;;1.20;0.75;;;;;;;12.01;73.06;101078.13;10569901;28;20410;-73
2022/09/06 15:42:22;;;;;;;3.05;1.08;;;;;;;11.98;73.36;101062.19;10570228;28;20410;-73
2022/09/06 15:47:24;;;;;;;3.83;1.35;;;;;;;11.96;74.22;101053.38;10577950;28;20048;-72
2022/09/06 15:52:26;;;;;;;3.78;1.25;;;;;;;11.81;75.04;101037.75;10568898;28;20048;-73
2022/09/06 15:57:29;;;;;;;2.08;1.13;;;;;;;11.59;76.96;101043.53;10567967;28;20469;-73
2022/09/06 16:02:32;;;;;;;1.23;1.02;;;;;;;11.40;78.15;101039.72;10583446;28;20036;-73
2022/09/06 16:07:36;;;;;;;1.45;1.27;;;;;;;11.27;79.40;101024.63;10569815;28;20048;-72
2022/09/06 16:12:39;;;;;;;1.30;1.20;;;;;;;11.20;78.98;101012.28;10565660;28;20044;-73
2022/09/06 16:17:41;;;;;;;1.58;1.10;;;;;;;11.15;80.39;101005.69;10567275;28;20048;-73
2022/09/06 16:22:44;;;;;;;1.88;1.20;;;;;;;11.09;81.08;100998.53;10569783;28;20036;-73
2022/09/06 16:27:46;;;;;;;1.90;1.15;;;;;;;11.04;81.55;100993.06;10550872;28;20044;-73
2022/09/06 16:32:48;;;;;;;1.83;1.25;;;;;;;11.01;81.07;100988.13;10569450;28;20056;-73
2022/09/06 16:37:51;;;;;;;2.95;0.98;;;;;;;11.01;81.92;100992.78;10565156;28;20401;-73
2022/09/06 16:42:53;;;;;;;2.28;1.08;;;;;;;11.02;82.17;100983.47;10571191;28;20463;-73
2022/09/06 16:47:56;;;;;;;2.03;1.10;;;;;;;11.02;83.00;100981.53;10567835;28;20040;-73
2022/09/06 16:52:58;;;;;;;2.55;1.00;;;;;;;10.99;82.61;100951.88;10566530;28;20044;-73
2022/09/06 16:58:00;;;;;;;4.28;1.58;;;;;;;11.00;83.67;100956.28;10568775;28;20055;-73
2022/09/06 17:03:02;;;;;;;1.70;1.00;;;;;;;10.98;84.38;100943.94;10566071;28;20044;-73
2022/09/06 17:08:05;;;;;;;2.13;0.93;;;;;;;10.94;85.16;100938.19;10527210;28;20414;-73
2022/09/06 17:13:07;;;;;;;2.33;1.10;;;;;;;10.91;85.81;100955.16;10544759;28;20063;-73
2022/09/06 17:18:10;;;;;;;1.35;1.10;;;;;;;10.91;85.85;100981.81;10567417;28;20056;-73
2022/09/06 17:23:12;;;;;;;4.68;1.38;;;;;;;10.83;87.63;100995.00;10551196;28;20051;-73
2022/09/06 17:28:15;;;;;;;1.40;1.00;;;;;;;10.65;88.70;100951.63;10533329;28;20503;-73
2022/09/06 17:33:17;;;;;;;2.15;1.10;;;;;;;10.56;89.34;100951.31;10534799;28;20043;-73
2022/09/06 17:38:19;;;;;;;2.58;1.17;;;;;;;10.54;89.86;100945.28;10532620;28;20047;-73
2022/09/06 17:43:22;;;;;;;2.20;1.02;;;;;;;10.53;89.55;100938.16;10540764;28;20047;-73
2022/09/06 17:48:26;;;;;;;1.90;1.17;;;;;;;10.52;90.96;100943.94;10539359;28;20044;-73
2022/09/06 17:53:28;;;;;;;1.33;0.93;;;;;;;10.51;90.80;100934.06;10544551;28;20474;-74
2022/09/06 17:58:31;;;;;;;2.85;1.20;;;;;;;10.54;91.55;100930.75;10541743;28;20047;-73
2022/09/06 18:03:33;;;;;;;3.60;1.58;;;;;;;10.57;92.13;100925.53;10537879;28;20055;-72
2022/09/06 18:08:37;;;;;;;2.67;1.17;;;;;;;10.61;93.40;100920.34;10543351;28;20533;-73
2022/09/06 18:13:43;;;;;;;3.25;1.40;;;;;;;10.65;94.29;100909.63;10541239;28;20036;-72
2022/09/06 18:18:51;;;;;;;1.70;1.30;;;;;;;10.65;94.40;100904.97;10539645;28;20071;-72
2022/09/06 18:23:53;;;;;;;;;;;;;;;10.64;95.36;100889.59;10552398;28;20032;-73
2022/09/06 18:28:55;;;;;;;3.20;1.40;;;;;;;10.66;95.74;100897.56;10541597;28;19919;-73
2022/09/06 18:33:59;;;;;;;4.07;1.60;;;;;;;10.66;95.59;100897.56;10537929;28;20048;-73
2022/09/06 18:39:03;;;;;;;2.13;1.27;;;;;;;10.67;95.98;100883.56;10543534;28;20421;-73
2022/09/06 18:44:05;;;;;;;2.63;1.90;;;;;;;10.71;95.62;100878.34;10536922;28;20039;-73
2022/09/06 18:49:08;;;;;;;2.63;1.58;;;;;;;10.77;95.85;100882.75;10538256;28;20039;-73
2022/09/06 18:54:10;;;;;;;2.15;1.65;;;;;;;10.82;95.73;100867.06;10554825;27;20040;-74
2022/09/06 18:59:12;;;;;;;2.40;1.67;;;;;;;10.85;96.25;100865.69;10537787;28;20040;-73
2022/09/06 19:04:15;;;;;;;3.47;1.55;;;;;;;10.84;96.82;100864.88;10538010;28;20048;-74
2022/09/06 19:09:17;;;;;;;1.95;1.13;;;;;;;10.83;97.11;100854.16;10540493;28;20059;-73
2022/09/06 19:14:20;;;;;;;4.78;1.50;;;;;;;10.81;96.55;100850.88;10537334;28;20032;-73
2022/09/06 19:19:23;;;;;;;3.63;1.33;;;;;;;10.81;96.60;100850.88;10539951;28;21002;-73
2022/09/06 19:24:25;;;;;;;3.33;1.50;;;;;;;10.80;97.31;100851.97;10542668;28;20749;-73
2022/09/06 19:29:27;;;;;;;4.35;1.38;;;;;;;10.76;96.76;100846.22;10538694;28;20032;-73
2022/09/06 19:34:30;;;;;;;3.45;1.50;;;;;;;10.74;96.94;100842.09;10540408;28;20036;-73
2022/09/06 19:39:32;;;;;;;2.45;1.65;;;;;;;10.73;97.34;100854.16;10535703;28;20509;-73
2022/09/06 19:44:35;;;;;;;3.53;1.90;;;;;;;10.74;96.86;100844.84;10535501;28;20028;-73
2022/09/06 19:49:37;;;;;;;2.90;1.70;;;;;;;10.72;97.14;100847.03;10536700;28;20048;-73
2022/09/06 19:54:41;;;;;;;3.22;1.75;;;;;;;10.75;97.06;100851.97;10536150;28;20052;-73
2022/09/06 19:59:43;;;;;;;2.67;1.70;;;;;;;10.72;97.36;100847.03;10536430;28;20040;-72
2022/09/06 20:04:46;;;;;;;2.65;1.75;;;;;;;10.70;97.44;100844.56;10537870;28;20044;-72
2022/09/06 20:09:48;;;;;;;1.52;1.42;;;;;;;10.65;97.02;100843.78;10536528;28;20047;-72
2022/09/06 20:14:51;;;;;;;3.35;1.77;;;;;;;10.62;97.18;100833.34;10549607;28;20050;-71
2022/09/06 20:19:53;;;;;;;1.73;1.35;;;;;;;10.57;97.71;100836.91;10534909;28;20044;-71
2022/09/06 20:24:56;;;;;;;2.50;1.40;;;;;;;10.53;97.09;100833.91;10535193;28;20129;-71
2022/09/06 20:29:58;;;;;;;2.00;1.50;;;;;;;10.54;97.63;100840.19;10536579;28;20522;-71
2022/09/06 20:35:00;;;;;;;1.88;1.38;;;;;;;10.52;96.92;100835.00;10535416;28;20033;-71
2022/09/06 20:40:04;;;;;;;4.80;1.45;;;;;;;10.49;96.76;100827.31;10535905;28;20048;-71
2022/09/06 20:45:07;;;;;;;3.55;1.55;;;;;;;10.48;96.45;100827.59;10556495;28;20040;-71
2022/09/06 20:50:09;;;;;;;2.75;1.60;;;;;;;10.40;96.75;100819.91;10567155;28;20051;-71
2022/09/06 20:55:11;;;;;;;3.38;2.20;;;;;;;10.33;96.91;100825.69;10560935;28;20039;-71
2022/09/06 21:00:14;;;;;;;3.35;1.70;;;;;;;10.28;96.00;100820.22;10562361;28;20427;-71
2022/09/06 21:05:16;;;;;;;4.63;1.20;;;;;;;10.22;96.11;100813.06;10563943;28;20043;-71
2022/09/06 21:10:20;;;;;;;1.35;1.17;;;;;;;10.15;95.62;100804.25;10566357;28;20089;-70
2022/09/06 21:15:22;;;;;;;3.00;1.50;;;;;;;10.09;95.36;100799.88;10574459;28;20040;-70
2022/09/06 21:20:25;;;;;;;1.98;1.58;;;;;;;10.07;95.93;100804.81;10573260;28;20040;-71
2022/09/06 21:25:27;;;;;;;1.83;1.40;;;;;;;10.01;95.06;100792.19;10575513;28;20048;-71
2022/09/06 21:30:29;;;;;;;1.92;1.35;;;;;;;9.96;94.92;100795.75;10580786;28;20042;-72
2022/09/06 21:35:33;;;;;;;3.08;1.63;;;;;;;9.92;95.83;100800.97;10579979;27;20417;-73
2022/09/06 21:40:35;;;;;;;4.38;1.95;;;;;;;9.86;95.16;100787.53;10564481;28;20524;-72
2022/09/06 21:45:38;;;;;;;3.60;1.80;;;;;;;9.82;95.27;100795.47;10568899;28;20032;-72
2022/09/06 21:51:09;;;;;;;3.35;2.00;;;;;;;9.79;95.78;100782.31;10573315;28;20043;-73
2022/09/06 21:56:12;;;;;;;4.60;2.03;;;;;;;9.77;95.78;100786.44;10566382;28;20047;-72
2022/09/06 22:01:14;;;;;;;3.13;1.83;;;;;;;9.71;95.98;100787.50;10571962;28;20040;-73
2022/09/06 22:06:20;;;;;;;2.60;1.70;;;;;;;9.66;96.19;100782.84;10571269;28;20058;-73
2022/09/06 22:11:24;;;;;;;3.10;1.48;;;;;;;9.62;96.22;100784.47;10572349;28;20035;-73
2022/09/06 22:16:28;;;;;;;2.88;1.40;;;;;;;9.60;95.74;100786.69;10566886;28;20039;-73
2022/09/06 22:21:31;;;;;;;2.08;1.30;;;;;;;9.60;95.64;100783.94;10566456;28;20047;-73
2022/09/06 22:26:35;;;;;;;2.13;1.00;;;;;;;9.58;94.98;100783.38;10566506;28;20051;-73
2022/09/06 22:31:38;;;;;;;1.10;0.88;;;;;;;9.51;94.84;100783.63;10569355;28;20406;-72
2022/09/06 22:36:40;;;;;;;1.70;0.90;;;;;;;9.49;95.22;100785.81;10556235;28;20044;-72
2022/09/06 22:41:43;;;;;;;1.73;1.20;;;;;;;9.50;94.98;100792.13;10568945;28;20036;-73
2022/09/06 22:46:46;;;;;;;0.73;0.73;;;;;;;9.47;94.44;100793.47;10566017;28;20059;-73
2022/09/06 22:51:48;;;;;;;0.85;0.80;;;;;;;9.46;95.08;100801.97;10568389;27;20397;-73
2022/09/06 22:56:50;;;;;;;1.75;1.00;;;;;;;9.49;94.16;100804.16;10558112;28;20028;-73
2022/09/06 23:01:52;;;;;;;1.77;0.82;;;;;;;9.50;94.45;100805.81;10565447;28;20048;-72
2022/09/06 23:06:54;;;;;;;0.68;0.60;;;;;;;9.47;94.45;100803.63;10567939;28;20499;-73
2022/09/06 23:11:57;;;;;;;0.75;0.60;;;;;;;9.41;94.49;100810.19;10564780;28;20036;-72
2022/09/06 23:16:59;;;;;;;0.88;0.80;;;;;;;9.36;95.14;100809.06;10569668;28;20036;-72
2022/09/06 23:22:01;;;;;;;0.70;0.65;;;;;;;9.26;94.54;100808.22;10568905;28;20051;-73
2022/09/06 23:27:04;;;;;;;0.57;0.57;;;;;;;9.20;95.46;100809.25;10565839;28;20046;-72